sensor_id;sensor_type;location;lat;lon;timestamp;P1;durP1;ratioP1;P2;durP2;ratioP2
67965;SDS011;54749;47.850;9.002;2023-03-18T00:00:12;12.53;;;5.07;;
67965;SDS011;54749;47.850;9.002;2023-03-18T00:03:02;11.80;;;4.93;;
67965;SDS011;54749;47.850;9.002;2023-03-18T00:05:29;11.40;;;4.97;;
67965;SDS011;54749;47.850;9.002;2023-03-18T00:07:56;11.98;;;5.00;;
67965;SDS011;54749;47.850;9.002;2023-03-18T00:10:23;10.43;;;4.70;;
67965;SDS011;54749;47.850;9.002;2023-03-18T00:12:50;10.80;;;4.57;;
67965;SDS011;54749;47.850;9.002;2023-03-18T00:15:19;10.23;;;4.40;;
67965;SDS011;54749;47.850;9.002;2023-03-18T00:17:46;10.57;;;4.68;;
67965;SDS011;54749;47.850;9.002;2023-03-18T00:20:14;10.68;;;4.50;;
67965;SDS011;54749;47.850;9.002;2023-03-18T00:22:44;13.13;;;5.47;;
67965;SDS011;54749;47.850;9.002;2023-03-18T00:25:11;18.45;;;7.78;;
67965;SDS011;54749;47.850;9.002;2023-03-18T00:27:39;17.87;;;6.60;;
67965;SDS011;54749;47.850;9.002;2023-03-18T00:30:07;12.43;;;5.95;;
67965;SDS011;54749;47.850;9.002;2023-03-18T00:32:35;19.67;;;8.57;;
67965;SDS011;54749;47.850;9.002;2023-03-18T00:35:02;17.55;;;7.65;;
67965;SDS011;54749;47.850;9.002;2023-03-18T00:37:29;17.02;;;6.22;;
67965;SDS011;54749;47.850;9.002;2023-03-18T00:40:00;20.10;;;8.37;;
67965;SDS011;54749;47.850;9.002;2023-03-18T00:42:43;14.88;;;6.85;;
67965;SDS011;54749;47.850;9.002;2023-03-18T00:45:14;16.33;;;6.10;;
67965;SDS011;54749;47.850;9.002;2023-03-18T00:47:42;12.07;;;5.32;;
67965;SDS011;54749;47.850;9.002;2023-03-18T00:50:10;11.43;;;4.85;;
67965;SDS011;54749;47.850;9.002;2023-03-18T00:52:37;12.13;;;4.47;;
67965;SDS011;54749;47.850;9.002;2023-03-18T00:55:05;11.20;;;4.88;;
67965;SDS011;54749;47.850;9.002;2023-03-18T00:57:33;9.60;;;4.82;;
67965;SDS011;54749;47.850;9.002;2023-03-18T01:00:00;10.88;;;4.63;;
67965;SDS011;54749;47.850;9.002;2023-03-18T01:02:28;13.88;;;5.70;;
67965;SDS011;54749;47.850;9.002;2023-03-18T01:04:56;14.67;;;6.20;;
67965;SDS011;54749;47.850;9.002;2023-03-18T01:07:23;19.88;;;7.18;;
67965;SDS011;54749;47.850;9.002;2023-03-18T01:09:51;16.17;;;7.18;;
67965;SDS011;54749;47.850;9.002;2023-03-18T01:12:18;17.08;;;7.20;;
67965;SDS011;54749;47.850;9.002;2023-03-18T01:14:45;17.35;;;7.60;;
67965;SDS011;54749;47.850;9.002;2023-03-18T01:17:12;16.67;;;7.80;;
67965;SDS011;54749;47.850;9.002;2023-03-18T01:19:40;21.58;;;8.55;;
67965;SDS011;54749;47.850;9.002;2023-03-18T01:22:08;16.50;;;6.82;;
67965;SDS011;54749;47.850;9.002;2023-03-18T01:24:42;16.02;;;7.03;;
67965;SDS011;54749;47.850;9.002;2023-03-18T01:27:09;18.83;;;8.05;;
67965;SDS011;54749;47.850;9.002;2023-03-18T01:29:39;15.83;;;6.60;;
67965;SDS011;54749;47.850;9.002;2023-03-18T01:32:13;12.73;;;5.30;;
67965;SDS011;54749;47.850;9.002;2023-03-18T01:34:41;10.55;;;4.50;;
67965;SDS011;54749;47.850;9.002;2023-03-18T01:37:08;12.30;;;4.72;;
67965;SDS011;54749;47.850;9.002;2023-03-18T01:39:37;10.65;;;4.55;;
67965;SDS011;54749;47.850;9.002;2023-03-18T01:42:13;8.47;;;3.73;;
67965;SDS011;54749;47.850;9.002;2023-03-18T01:44:40;11.45;;;3.70;;
67965;SDS011;54749;47.850;9.002;2023-03-18T01:47:08;9.35;;;3.80;;
67965;SDS011;54749;47.850;9.002;2023-03-18T01:49:40;10.02;;;3.95;;
67965;SDS011;54749;47.850;9.002;2023-03-18T01:52:11;9.60;;;3.55;;
67965;SDS011;54749;47.850;9.002;2023-03-18T01:54:44;9.77;;;4.40;;
67965;SDS011;54749;47.850;9.002;2023-03-18T01:57:15;12.88;;;4.60;;
67965;SDS011;54749;47.850;9.002;2023-03-18T01:59:44;10.68;;;4.40;;
67965;SDS011;54749;47.850;9.002;2023-03-18T02:02:13;11.57;;;4.93;;
67965;SDS011;54749;47.850;9.002;2023-03-18T02:04:51;10.98;;;4.75;;
67965;SDS011;54749;47.850;9.002;2023-03-18T02:07:30;10.20;;;3.83;;
67965;SDS011;54749;47.850;9.002;2023-03-18T02:10:01;7.72;;;3.75;;
67965;SDS011;54749;47.850;9.002;2023-03-18T02:12:33;10.15;;;3.80;;
67965;SDS011;54749;47.850;9.002;2023-03-18T02:15:10;11.88;;;3.95;;
67965;SDS011;54749;47.850;9.002;2023-03-18T02:17:41;9.13;;;3.58;;
67965;SDS011;54749;47.850;9.002;2023-03-18T02:20:15;8.97;;;4.00;;
67965;SDS011;54749;47.850;9.002;2023-03-18T02:22:55;10.60;;;4.25;;
67965;SDS011;54749;47.850;9.002;2023-03-18T02:25:38;10.38;;;4.38;;
67965;SDS011;54749;47.850;9.002;2023-03-18T02:28:16;9.30;;;3.45;;
67965;SDS011;54749;47.850;9.002;2023-03-18T02:30:47;9.70;;;3.85;;
67965;SDS011;54749;47.850;9.002;2023-03-18T02:33:18;8.17;;;3.53;;
67965;SDS011;54749;47.850;9.002;2023-03-18T02:35:49;8.93;;;3.60;;
67965;SDS011;54749;47.850;9.002;2023-03-18T02:38:41;9.27;;;3.75;;
67965;SDS011;54749;47.850;9.002;2023-03-18T02:41:12;10.55;;;4.25;;
67965;SDS011;54749;47.850;9.002;2023-03-18T02:43:44;9.05;;;4.05;;
67965;SDS011;54749;47.850;9.002;2023-03-18T02:48:57;14.43;;;6.47;;
67965;SDS011;54749;47.850;9.002;2023-03-18T02:51:27;15.60;;;6.50;;
67965;SDS011;54749;47.850;9.002;2023-03-18T02:53:56;15.98;;;7.15;;
67965;SDS011;54749;47.850;9.002;2023-03-18T02:56:28;16.30;;;7.00;;
67965;SDS011;54749;47.850;9.002;2023-03-18T02:58:55;14.13;;;6.40;;
67965;SDS011;54749;47.850;9.002;2023-03-18T03:01:23;17.65;;;6.65;;
67965;SDS011;54749;47.850;9.002;2023-03-18T03:03:51;13.27;;;6.05;;
67965;SDS011;54749;47.850;9.002;2023-03-18T03:06:18;18.10;;;6.90;;
67965;SDS011;54749;47.850;9.002;2023-03-18T03:08:45;18.90;;;7.78;;
67965;SDS011;54749;47.850;9.002;2023-03-18T03:11:13;20.00;;;7.70;;
67965;SDS011;54749;47.850;9.002;2023-03-18T03:13:43;18.92;;;7.45;;
67965;SDS011;54749;47.850;9.002;2023-03-18T03:16:14;17.42;;;7.20;;
67965;SDS011;54749;47.850;9.002;2023-03-18T03:18:43;11.35;;;5.07;;
67965;SDS011;54749;47.850;9.002;2023-03-18T03:21:11;11.30;;;4.63;;
67965;SDS011;54749;47.850;9.002;2023-03-18T03:23:41;10.57;;;4.20;;
67965;SDS011;54749;47.850;9.002;2023-03-18T03:26:09;9.50;;;4.05;;
67965;SDS011;54749;47.850;9.002;2023-03-18T03:28:37;11.82;;;4.57;;
67965;SDS011;54749;47.850;9.002;2023-03-18T03:31:04;18.67;;;8.30;;
67965;SDS011;54749;47.850;9.002;2023-03-18T03:33:34;17.92;;;7.53;;
67965;SDS011;54749;47.850;9.002;2023-03-18T03:36:02;16.53;;;6.90;;
67965;SDS011;54749;47.850;9.002;2023-03-18T03:38:30;19.02;;;6.72;;
67965;SDS011;54749;47.850;9.002;2023-03-18T03:40:57;15.95;;;6.80;;
67965;SDS011;54749;47.850;9.002;2023-03-18T03:43:24;13.38;;;6.20;;
67965;SDS011;54749;47.850;9.002;2023-03-18T03:45:51;13.13;;;5.55;;
67965;SDS011;54749;47.850;9.002;2023-03-18T03:48:18;9.57;;;3.93;;
67965;SDS011;54749;47.850;9.002;2023-03-18T03:50:45;9.75;;;3.83;;
67965;SDS011;54749;47.850;9.002;2023-03-18T03:53:13;8.85;;;3.60;;
67965;SDS011;54749;47.850;9.002;2023-03-18T03:55:40;9.98;;;3.50;;
67965;SDS011;54749;47.850;9.002;2023-03-18T03:58:08;6.85;;;3.17;;
67965;SDS011;54749;47.850;9.002;2023-03-18T04:00:36;8.77;;;3.90;;
67965;SDS011;54749;47.850;9.002;2023-03-18T04:03:03;9.50;;;4.05;;
67965;SDS011;54749;47.850;9.002;2023-03-18T04:05:31;9.82;;;4.03;;
67965;SDS011;54749;47.850;9.002;2023-03-18T04:07:59;9.98;;;3.60;;
67965;SDS011;54749;47.850;9.002;2023-03-18T04:10:37;10.10;;;3.97;;
67965;SDS011;54749;47.850;9.002;2023-03-18T04:13:07;8.10;;;3.30;;
67965;SDS011;54749;47.850;9.002;2023-03-18T04:15:38;8.93;;;3.30;;
67965;SDS011;54749;47.850;9.002;2023-03-18T04:18:08;7.80;;;3.58;;
67965;SDS011;54749;47.850;9.002;2023-03-18T04:20:37;8.32;;;3.22;;
67965;SDS011;54749;47.850;9.002;2023-03-18T04:23:26;8.32;;;3.47;;
67965;SDS011;54749;47.850;9.002;2023-03-18T04:25:53;9.27;;;3.90;;
67965;SDS011;54749;47.850;9.002;2023-03-18T04:28:20;8.55;;;3.42;;
67965;SDS011;54749;47.850;9.002;2023-03-18T04:30:48;9.68;;;3.95;;
67965;SDS011;54749;47.850;9.002;2023-03-18T04:33:16;8.55;;;3.40;;
67965;SDS011;54749;47.850;9.002;2023-03-18T04:35:46;10.55;;;4.15;;
67965;SDS011;54749;47.850;9.002;2023-03-18T04:38:15;8.80;;;3.47;;
67965;SDS011;54749;47.850;9.002;2023-03-18T04:40:43;9.18;;;3.60;;
67965;SDS011;54749;47.850;9.002;2023-03-18T04:43:11;8.75;;;3.80;;
67965;SDS011;54749;47.850;9.002;2023-03-18T04:45:38;13.52;;;6.03;;
67965;SDS011;54749;47.850;9.002;2023-03-18T04:48:05;17.73;;;7.43;;
67965;SDS011;54749;47.850;9.002;2023-03-18T04:50:37;13.57;;;5.77;;
67965;SDS011;54749;47.850;9.002;2023-03-18T04:53:07;14.55;;;6.03;;
67965;SDS011;54749;47.850;9.002;2023-03-18T04:55:35;14.57;;;6.10;;
67965;SDS011;54749;47.850;9.002;2023-03-18T04:58:05;12.18;;;4.85;;
67965;SDS011;54749;47.850;9.002;2023-03-18T05:00:38;10.52;;;4.18;;
67965;SDS011;54749;47.850;9.002;2023-03-18T05:03:20;12.03;;;4.17;;
67965;SDS011;54749;47.850;9.002;2023-03-18T05:05:48;13.30;;;5.13;;
67965;SDS011;54749;47.850;9.002;2023-03-18T05:08:20;9.77;;;4.25;;
67965;SDS011;54749;47.850;9.002;2023-03-18T05:10:49;10.00;;;4.30;;
67965;SDS011;54749;47.850;9.002;2023-03-18T05:13:17;12.45;;;4.20;;
67965;SDS011;54749;47.850;9.002;2023-03-18T05:15:44;18.27;;;5.80;;
67965;SDS011;54749;47.850;9.002;2023-03-18T05:18:11;11.90;;;4.70;;
67965;SDS011;54749;47.850;9.002;2023-03-18T05:20:40;10.70;;;4.43;;
67965;SDS011;54749;47.850;9.002;2023-03-18T05:23:11;10.48;;;3.83;;
67965;SDS011;54749;47.850;9.002;2023-03-18T05:25:46;10.75;;;4.18;;
67965;SDS011;54749;47.850;9.002;2023-03-18T05:28:15;11.03;;;4.23;;
67965;SDS011;54749;47.850;9.002;2023-03-18T05:30:49;9.80;;;3.97;;
67965;SDS011;54749;47.850;9.002;2023-03-18T05:33:17;9.07;;;3.90;;
67965;SDS011;54749;47.850;9.002;2023-03-18T05:35:52;9.45;;;3.80;;
67965;SDS011;54749;47.850;9.002;2023-03-18T05:38:24;13.38;;;4.90;;
67965;SDS011;54749;47.850;9.002;2023-03-18T05:40:52;18.67;;;7.07;;
67965;SDS011;54749;47.850;9.002;2023-03-18T05:43:25;13.15;;;5.13;;
67965;SDS011;54749;47.850;9.002;2023-03-18T05:45:56;13.52;;;5.30;;
67965;SDS011;54749;47.850;9.002;2023-03-18T05:48:59;10.80;;;4.55;;
67965;SDS011;54749;47.850;9.002;2023-03-18T05:51:31;9.35;;;3.80;;
67965;SDS011;54749;47.850;9.002;2023-03-18T05:53:59;9.80;;;3.93;;
67965;SDS011;54749;47.850;9.002;2023-03-18T05:56:31;10.07;;;3.60;;
67965;SDS011;54749;47.850;9.002;2023-03-18T05:59:01;9.27;;;3.78;;
67965;SDS011;54749;47.850;9.002;2023-03-18T06:01:38;10.63;;;3.80;;
67965;SDS011;54749;47.850;9.002;2023-03-18T06:04:06;10.88;;;4.32;;
67965;SDS011;54749;47.850;9.002;2023-03-18T06:06:35;14.77;;;5.73;;
67965;SDS011;54749;47.850;9.002;2023-03-18T06:09:09;11.15;;;4.97;;
67965;SDS011;54749;47.850;9.002;2023-03-18T06:11:40;15.52;;;6.32;;
67965;SDS011;54749;47.850;9.002;2023-03-18T06:14:07;18.95;;;7.10;;
67965;SDS011;54749;47.850;9.002;2023-03-18T06:16:35;19.98;;;7.93;;
67965;SDS011;54749;47.850;9.002;2023-03-18T06:19:03;22.33;;;7.87;;
67965;SDS011;54749;47.850;9.002;2023-03-18T06:21:30;24.48;;;8.70;;
67965;SDS011;54749;47.850;9.002;2023-03-18T06:23:59;24.73;;;7.70;;
67965;SDS011;54749;47.850;9.002;2023-03-18T06:26:27;22.13;;;7.30;;
67965;SDS011;54749;47.850;9.002;2023-03-18T06:28:54;16.10;;;6.82;;
67965;SDS011;54749;47.850;9.002;2023-03-18T06:31:24;15.57;;;6.70;;
67965;SDS011;54749;47.850;9.002;2023-03-18T06:33:51;18.00;;;7.43;;
67965;SDS011;54749;47.850;9.002;2023-03-18T06:36:20;19.20;;;7.55;;
67965;SDS011;54749;47.850;9.002;2023-03-18T06:38:49;18.70;;;7.85;;
67965;SDS011;54749;47.850;9.002;2023-03-18T06:41:18;19.33;;;7.50;;
67965;SDS011;54749;47.850;9.002;2023-03-18T06:44:01;17.13;;;6.20;;
67965;SDS011;54749;47.850;9.002;2023-03-18T06:46:30;12.73;;;5.88;;
67965;SDS011;54749;47.850;9.002;2023-03-18T06:48:59;14.30;;;5.40;;
67965;SDS011;54749;47.850;9.002;2023-03-18T06:51:30;13.40;;;5.22;;
67965;SDS011;54749;47.850;9.002;2023-03-18T06:53:59;13.23;;;5.70;;
67965;SDS011;54749;47.850;9.002;2023-03-18T06:56:30;13.90;;;5.63;;
67965;SDS011;54749;47.850;9.002;2023-03-18T06:59:10;14.25;;;5.63;;
67965;SDS011;54749;47.850;9.002;2023-03-18T07:01:38;13.02;;;5.80;;
67965;SDS011;54749;47.850;9.002;2023-03-18T07:04:05;12.13;;;5.53;;
67965;SDS011;54749;47.850;9.002;2023-03-18T07:06:33;11.80;;;5.80;;
67965;SDS011;54749;47.850;9.002;2023-03-18T07:09:00;11.83;;;5.57;;
67965;SDS011;54749;47.850;9.002;2023-03-18T07:11:28;13.30;;;5.30;;
67965;SDS011;54749;47.850;9.002;2023-03-18T07:13:57;9.82;;;5.32;;
67965;SDS011;54749;47.850;9.002;2023-03-18T07:16:29;10.63;;;5.40;;
67965;SDS011;54749;47.850;9.002;2023-03-18T07:18:56;10.68;;;5.85;;
67965;SDS011;54749;47.850;9.002;2023-03-18T07:21:29;12.00;;;5.67;;
67965;SDS011;54749;47.850;9.002;2023-03-18T07:23:56;9.40;;;5.50;;
67965;SDS011;54749;47.850;9.002;2023-03-18T07:26:24;14.27;;;6.40;;
67965;SDS011;54749;47.850;9.002;2023-03-18T07:28:51;11.90;;;6.00;;
67965;SDS011;54749;47.850;9.002;2023-03-18T07:31:18;13.43;;;6.50;;
67965;SDS011;54749;47.850;9.002;2023-03-18T07:33:45;11.53;;;5.70;;
67965;SDS011;54749;47.850;9.002;2023-03-18T07:36:12;11.02;;;6.03;;
67965;SDS011;54749;47.850;9.002;2023-03-18T07:38:40;11.13;;;6.53;;
67965;SDS011;54749;47.850;9.002;2023-03-18T07:41:08;11.50;;;5.90;;
67965;SDS011;54749;47.850;9.002;2023-03-18T07:43:34;10.55;;;6.18;;
67965;SDS011;54749;47.850;9.002;2023-03-18T07:46:02;12.83;;;5.80;;
67965;SDS011;54749;47.850;9.002;2023-03-18T07:48:30;13.75;;;6.68;;
67965;SDS011;54749;47.850;9.002;2023-03-18T07:50:57;11.85;;;6.47;;
67965;SDS011;54749;47.850;9.002;2023-03-18T07:53:26;10.43;;;5.80;;
67965;SDS011;54749;47.850;9.002;2023-03-18T07:55:53;9.40;;;5.47;;
67965;SDS011;54749;47.850;9.002;2023-03-18T07:58:21;9.37;;;5.17;;
67965;SDS011;54749;47.850;9.002;2023-03-18T08:00:48;11.68;;;6.43;;
67965;SDS011;54749;47.850;9.002;2023-03-18T08:03:15;10.13;;;6.25;;
67965;SDS011;54749;47.850;9.002;2023-03-18T08:05:42;12.40;;;6.75;;
67965;SDS011;54749;47.850;9.002;2023-03-18T08:08:10;10.48;;;5.70;;
67965;SDS011;54749;47.850;9.002;2023-03-18T08:10:37;11.90;;;7.73;;
67965;SDS011;54749;47.850;9.002;2023-03-18T08:13:04;10.75;;;6.93;;
67965;SDS011;54749;47.850;9.002;2023-03-18T08:15:32;10.40;;;6.90;;
67965;SDS011;54749;47.850;9.002;2023-03-18T08:17:59;11.25;;;7.45;;
67965;SDS011;54749;47.850;9.002;2023-03-18T08:20:27;12.90;;;7.90;;
67965;SDS011;54749;47.850;9.002;2023-03-18T08:22:54;12.05;;;7.95;;
67965;SDS011;54749;47.850;9.002;2023-03-18T08:25:22;10.83;;;6.67;;
67965;SDS011;54749;47.850;9.002;2023-03-18T08:27:49;14.25;;;8.18;;
67965;SDS011;54749;47.850;9.002;2023-03-18T08:30:18;10.30;;;6.57;;
67965;SDS011;54749;47.850;9.002;2023-03-18T08:32:45;12.52;;;7.45;;
67965;SDS011;54749;47.850;9.002;2023-03-18T08:35:12;12.13;;;7.93;;
67965;SDS011;54749;47.850;9.002;2023-03-18T08:37:39;14.63;;;10.27;;
67965;SDS011;54749;47.850;9.002;2023-03-18T08:40:07;12.73;;;9.50;;
67965;SDS011;54749;47.850;9.002;2023-03-18T08:42:35;12.98;;;8.95;;
67965;SDS011;54749;47.850;9.002;2023-03-18T08:45:02;11.20;;;7.80;;
67965;SDS011;54749;47.850;9.002;2023-03-18T08:47:30;12.48;;;8.85;;
67965;SDS011;54749;47.850;9.002;2023-03-18T08:49:57;14.47;;;8.20;;
67965;SDS011;54749;47.850;9.002;2023-03-18T08:52:24;12.77;;;7.13;;
67965;SDS011;54749;47.850;9.002;2023-03-18T08:54:51;13.68;;;7.97;;
67965;SDS011;54749;47.850;9.002;2023-03-18T08:57:18;17.25;;;9.43;;
67965;SDS011;54749;47.850;9.002;2023-03-18T08:59:45;12.38;;;7.63;;
67965;SDS011;54749;47.850;9.002;2023-03-18T09:02:13;9.57;;;6.03;;
67965;SDS011;54749;47.850;9.002;2023-03-18T09:04:44;10.23;;;6.22;;
67965;SDS011;54749;47.850;9.002;2023-03-18T09:07:11;10.18;;;6.32;;
67965;SDS011;54749;47.850;9.002;2023-03-18T09:09:39;10.85;;;6.32;;
67965;SDS011;54749;47.850;9.002;2023-03-18T09:12:09;8.55;;;5.50;;
67965;SDS011;54749;47.850;9.002;2023-03-18T09:14:39;12.90;;;9.30;;
67965;SDS011;54749;47.850;9.002;2023-03-18T09:17:08;15.43;;;8.20;;
67965;SDS011;54749;47.850;9.002;2023-03-18T09:19:35;12.90;;;7.93;;
67965;SDS011;54749;47.850;9.002;2023-03-18T09:22:03;10.88;;;7.13;;
67965;SDS011;54749;47.850;9.002;2023-03-18T09:24:30;10.10;;;6.93;;
67965;SDS011;54749;47.850;9.002;2023-03-18T09:26:57;34.73;;;23.07;;
67965;SDS011;54749;47.850;9.002;2023-03-18T09:29:25;14.85;;;9.88;;
67965;SDS011;54749;47.850;9.002;2023-03-18T09:31:53;11.90;;;7.38;;
67965;SDS011;54749;47.850;9.002;2023-03-18T09:34:21;15.30;;;10.63;;
67965;SDS011;54749;47.850;9.002;2023-03-18T09:36:48;15.10;;;9.25;;
67965;SDS011;54749;47.850;9.002;2023-03-18T09:39:18;13.37;;;8.93;;
67965;SDS011;54749;47.850;9.002;2023-03-18T09:44:49;13.15;;;7.78;;
67965;SDS011;54749;47.850;9.002;2023-03-18T09:55:46;11.10;;;7.63;;
67965;SDS011;54749;47.850;9.002;2023-03-18T09:58:21;10.35;;;6.97;;
67965;SDS011;54749;47.850;9.002;2023-03-18T10:01:00;11.15;;;7.50;;
67965;SDS011;54749;47.850;9.002;2023-03-18T10:03:31;10.50;;;6.93;;
67965;SDS011;54749;47.850;9.002;2023-03-18T10:06:09;9.87;;;6.70;;
67965;SDS011;54749;47.850;9.002;2023-03-18T10:08:44;13.95;;;7.95;;
67965;SDS011;54749;47.850;9.002;2023-03-18T10:19:28;11.67;;;7.00;;
67965;SDS011;54749;47.850;9.002;2023-03-18T10:22:17;9.98;;;6.20;;
67965;SDS011;54749;47.850;9.002;2023-03-18T10:25:22;11.07;;;6.60;;
67965;SDS011;54749;47.850;9.002;2023-03-18T10:33:49;12.13;;;7.10;;
67965;SDS011;54749;47.850;9.002;2023-03-18T10:36:24;11.23;;;6.97;;
67965;SDS011;54749;47.850;9.002;2023-03-18T10:38:54;8.95;;;5.72;;
67965;SDS011;54749;47.850;9.002;2023-03-18T10:41:34;10.82;;;6.03;;
67965;SDS011;54749;47.850;9.002;2023-03-18T10:44:05;11.02;;;5.50;;
67965;SDS011;54749;47.850;9.002;2023-03-18T10:46:43;9.03;;;5.90;;
67965;SDS011;54749;47.850;9.002;2023-03-18T10:49:16;8.60;;;4.88;;
67965;SDS011;54749;47.850;9.002;2023-03-18T10:51:49;11.60;;;7.20;;
67965;SDS011;54749;47.850;9.002;2023-03-18T10:54:34;11.02;;;6.47;;
67965;SDS011;54749;47.850;9.002;2023-03-18T10:57:05;8.25;;;5.60;;
67965;SDS011;54749;47.850;9.002;2023-03-18T10:59:39;8.60;;;5.00;;
67965;SDS011;54749;47.850;9.002;2023-03-18T11:02:13;9.98;;;4.80;;
67965;SDS011;54749;47.850;9.002;2023-03-18T11:04:52;8.07;;;4.47;;
67965;SDS011;54749;47.850;9.002;2023-03-18T11:07:23;7.32;;;4.32;;
67965;SDS011;54749;47.850;9.002;2023-03-18T11:09:52;8.05;;;5.57;;
67965;SDS011;54749;47.850;9.002;2023-03-18T11:12:25;7.90;;;4.20;;
67965;SDS011;54749;47.850;9.002;2023-03-18T11:14:55;8.27;;;4.70;;
67965;SDS011;54749;47.850;9.002;2023-03-18T11:17:28;7.65;;;4.60;;
67965;SDS011;54749;47.850;9.002;2023-03-18T11:20:03;7.97;;;4.47;;
67965;SDS011;54749;47.850;9.002;2023-03-18T11:22:51;9.63;;;5.63;;
67965;SDS011;54749;47.850;9.002;2023-03-18T11:25:22;8.97;;;4.20;;
67965;SDS011;54749;47.850;9.002;2023-03-18T11:27:56;8.95;;;4.88;;
67965;SDS011;54749;47.850;9.002;2023-03-18T11:30:26;9.50;;;4.60;;
67965;SDS011;54749;47.850;9.002;2023-03-18T11:33:12;9.77;;;4.90;;
67965;SDS011;54749;47.850;9.002;2023-03-18T11:35:53;11.35;;;4.95;;
67965;SDS011;54749;47.850;9.002;2023-03-18T11:38:24;9.67;;;4.53;;
67965;SDS011;54749;47.850;9.002;2023-03-18T11:41:13;8.30;;;4.63;;
67965;SDS011;54749;47.850;9.002;2023-03-18T11:43:55;10.20;;;4.93;;
67965;SDS011;54749;47.850;9.002;2023-03-18T11:46:38;13.45;;;5.28;;
67965;SDS011;54749;47.850;9.002;2023-03-18T11:49:10;10.82;;;4.30;;
67965;SDS011;54749;47.850;9.002;2023-03-18T11:54:41;8.48;;;3.45;;
67965;SDS011;54749;47.850;9.002;2023-03-18T11:57:17;10.63;;;4.75;;
67965;SDS011;54749;47.850;9.002;2023-03-18T12:00:09;12.68;;;5.35;;
67965;SDS011;54749;47.850;9.002;2023-03-18T12:08:11;10.82;;;4.60;;
67965;SDS011;54749;47.850;9.002;2023-03-18T12:11:34;8.85;;;4.47;;
67965;SDS011;54749;47.850;9.002;2023-03-18T12:25:11;6.95;;;2.85;;
67965;SDS011;54749;47.850;9.002;2023-03-18T12:35:57;5.53;;;2.28;;
67965;SDS011;54749;47.850;9.002;2023-03-18T12:38:52;5.68;;;2.40;;
67965;SDS011;54749;47.850;9.002;2023-03-18T12:44:20;5.85;;;2.33;;
67965;SDS011;54749;47.850;9.002;2023-03-18T12:46:52;7.43;;;2.47;;
67965;SDS011;54749;47.850;9.002;2023-03-18T12:49:24;5.85;;;2.45;;
67965;SDS011;54749;47.850;9.002;2023-03-18T12:54:47;6.97;;;2.30;;
67965;SDS011;54749;47.850;9.002;2023-03-18T12:57:37;6.43;;;2.20;;
67965;SDS011;54749;47.850;9.002;2023-03-18T13:00:18;6.70;;;2.07;;
67965;SDS011;54749;47.850;9.002;2023-03-18T13:02:58;7.18;;;2.47;;
67965;SDS011;54749;47.850;9.002;2023-03-18T13:05:40;7.07;;;2.30;;
67965;SDS011;54749;47.850;9.002;2023-03-18T13:10:57;8.18;;;2.70;;
67965;SDS011;54749;47.850;9.002;2023-03-18T13:13:32;7.37;;;2.63;;
67965;SDS011;54749;47.850;9.002;2023-03-18T13:16:02;7.75;;;2.10;;
67965;SDS011;54749;47.850;9.002;2023-03-18T13:18:38;6.50;;;2.60;;
67965;SDS011;54749;47.850;9.002;2023-03-18T13:21:12;7.15;;;2.17;;
67965;SDS011;54749;47.850;9.002;2023-03-18T13:24:29;5.32;;;1.98;;
67965;SDS011;54749;47.850;9.002;2023-03-18T13:29:20;5.65;;;2.25;;
67965;SDS011;54749;47.850;9.002;2023-03-18T13:32:01;5.32;;;2.03;;
67965;SDS011;54749;47.850;9.002;2023-03-18T13:43:27;6.63;;;1.80;;
67965;SDS011;54749;47.850;9.002;2023-03-18T13:45:58;6.30;;;1.80;;
67965;SDS011;54749;47.850;9.002;2023-03-18T13:51:13;6.70;;;1.90;;
67965;SDS011;54749;47.850;9.002;2023-03-18T13:53:46;6.00;;;1.83;;
67965;SDS011;54749;47.850;9.002;2023-03-18T13:59:03;5.97;;;2.08;;
67965;SDS011;54749;47.850;9.002;2023-03-18T14:01:34;5.80;;;1.85;;
67965;SDS011;54749;47.850;9.002;2023-03-18T14:07:11;5.83;;;1.83;;
67965;SDS011;54749;47.850;9.002;2023-03-18T14:12:43;5.60;;;2.05;;
67965;SDS011;54749;47.850;9.002;2023-03-18T14:17:42;6.07;;;2.03;;
67965;SDS011;54749;47.850;9.002;2023-03-18T14:20:19;7.77;;;2.10;;
67965;SDS011;54749;47.850;9.002;2023-03-18T14:22:54;5.82;;;2.00;;
67965;SDS011;54749;47.850;9.002;2023-03-18T14:25:41;5.45;;;2.13;;
67965;SDS011;54749;47.850;9.002;2023-03-18T14:30:44;5.00;;;1.70;;
67965;SDS011;54749;47.850;9.002;2023-03-18T14:35:52;4.93;;;1.73;;
67965;SDS011;54749;47.850;9.002;2023-03-18T14:38:24;6.00;;;2.20;;
67965;SDS011;54749;47.850;9.002;2023-03-18T14:40:56;5.55;;;1.90;;
67965;SDS011;54749;47.850;9.002;2023-03-18T14:46:16;5.43;;;1.83;;
67965;SDS011;54749;47.850;9.002;2023-03-18T14:48:51;6.15;;;1.88;;
67965;SDS011;54749;47.850;9.002;2023-03-18T14:51:19;6.10;;;1.85;;
67965;SDS011;54749;47.850;9.002;2023-03-18T14:54:00;5.43;;;1.90;;
67965;SDS011;54749;47.850;9.002;2023-03-18T14:56:35;5.57;;;2.00;;
67965;SDS011;54749;47.850;9.002;2023-03-18T14:59:05;5.93;;;1.90;;
67965;SDS011;54749;47.850;9.002;2023-03-18T15:01:34;5.13;;;2.20;;
67965;SDS011;54749;47.850;9.002;2023-03-18T15:04:04;5.63;;;2.22;;
67965;SDS011;54749;47.850;9.002;2023-03-18T15:06:37;4.70;;;1.88;;
67965;SDS011;54749;47.850;9.002;2023-03-18T15:09:07;5.65;;;1.90;;
67965;SDS011;54749;47.850;9.002;2023-03-18T15:11:39;4.47;;;1.70;;
67965;SDS011;54749;47.850;9.002;2023-03-18T15:14:10;7.72;;;2.47;;
67965;SDS011;54749;47.850;9.002;2023-03-18T15:16:38;7.43;;;2.50;;
67965;SDS011;54749;47.850;9.002;2023-03-18T15:19:06;5.82;;;2.03;;
67965;SDS011;54749;47.850;9.002;2023-03-18T15:21:36;4.93;;;1.90;;
67965;SDS011;54749;47.850;9.002;2023-03-18T15:24:05;7.30;;;1.80;;
67965;SDS011;54749;47.850;9.002;2023-03-18T15:26:34;5.20;;;1.60;;
67965;SDS011;54749;47.850;9.002;2023-03-18T15:32:11;4.05;;;1.30;;
67965;SDS011;54749;47.850;9.002;2023-03-18T15:34:43;5.63;;;1.80;;
67965;SDS011;54749;47.850;9.002;2023-03-18T15:42:44;5.43;;;1.90;;
67965;SDS011;54749;47.850;9.002;2023-03-18T15:45:17;4.82;;;1.60;;
67965;SDS011;54749;47.850;9.002;2023-03-18T15:47:46;4.57;;;1.70;;
67965;SDS011;54749;47.850;9.002;2023-03-18T15:52:44;5.15;;;1.75;;
67965;SDS011;54749;47.850;9.002;2023-03-18T15:55:20;5.55;;;2.05;;
67965;SDS011;54749;47.850;9.002;2023-03-18T15:57:55;7.97;;;1.95;;
67965;SDS011;54749;47.850;9.002;2023-03-18T16:00:23;5.40;;;2.10;;
67965;SDS011;54749;47.850;9.002;2023-03-18T16:02:51;6.67;;;2.63;;
67965;SDS011;54749;47.850;9.002;2023-03-18T16:05:20;9.18;;;3.50;;
67965;SDS011;54749;47.850;9.002;2023-03-18T16:07:52;8.50;;;3.63;;
67965;SDS011;54749;47.850;9.002;2023-03-18T16:10:20;7.72;;;2.78;;
67965;SDS011;54749;47.850;9.002;2023-03-18T16:12:50;6.70;;;2.40;;
67965;SDS011;54749;47.850;9.002;2023-03-18T16:15:20;5.40;;;2.10;;
67965;SDS011;54749;47.850;9.002;2023-03-18T16:17:48;5.60;;;2.05;;
67965;SDS011;54749;47.850;9.002;2023-03-18T16:20:23;5.45;;;2.00;;
67965;SDS011;54749;47.850;9.002;2023-03-18T16:22:53;5.10;;;2.00;;
67965;SDS011;54749;47.850;9.002;2023-03-18T16:25:21;6.15;;;1.90;;
67965;SDS011;54749;47.850;9.002;2023-03-18T16:27:50;5.30;;;1.70;;
67965;SDS011;54749;47.850;9.002;2023-03-18T16:30:25;4.70;;;1.95;;
67965;SDS011;54749;47.850;9.002;2023-03-18T16:32:54;4.50;;;1.70;;
67965;SDS011;54749;47.850;9.002;2023-03-18T16:35:24;5.00;;;1.80;;
67965;SDS011;54749;47.850;9.002;2023-03-18T16:37:55;4.57;;;1.52;;
67965;SDS011;54749;47.850;9.002;2023-03-18T16:40:23;5.27;;;1.63;;
67965;SDS011;54749;47.850;9.002;2023-03-18T16:42:52;4.97;;;1.75;;
67965;SDS011;54749;47.850;9.002;2023-03-18T16:45:20;5.55;;;1.60;;
67965;SDS011;54749;47.850;9.002;2023-03-18T16:47:50;5.70;;;1.60;;
67965;SDS011;54749;47.850;9.002;2023-03-18T16:50:24;4.35;;;1.60;;
67965;SDS011;54749;47.850;9.002;2023-03-18T16:52:55;5.60;;;1.70;;